Time;durP1;ratioP1;P1;durP2;ratioP2;P2;SDS_P1;SDS_P2;PMS_P1;PMS_P2;Temp;Humidity;BMP_temperature;BMP_pressure;BME280_temperature;BME280_humidity;BME280_pressure;Samples;Min_cycle;Max_cycle;Signal;HPM_P1;HPM_P2
2022/10/11 00:00:33;;;;;;;6.55;1.70;;;8.90;99.90;;;;;;5073231;28;20025;-42
2022/10/11 00:02:59;;;;;;;7.18;1.98;;;8.90;99.90;;;;;;5077360;28;20185;-43
2022/10/11 00:05:25;;;;;;;10.15;2.63;;;8.80;99.90;;;;;;5078649;28;20433;-41
2022/10/11 00:07:50;;;;;;;4.28;1.30;;;8.80;99.90;;;;;;5093112;28;20116;-41
2022/10/11 00:10:16;;;;;;;12.68;2.25;;;8.80;99.90;;;;;;5092799;28;20488;-45
2022/10/11 00:12:42;;;;;;;5.97;1.90;;;8.80;99.90;;;;;;5090350;28;20035;-42
2022/10/11 00:15:10;;;;;;;9.63;1.77;;;8.80;99.90;;;;;;5075583;28;20036;-44
2022/10/11 00:17:36;;;;;;;6.53;1.95;;;8.80;99.90;;;;;;5079172;28;20036;-41
2022/10/11 00:20:02;;;;;;;6.05;2.08;;;8.70;99.90;;;;;;5084245;28;20503;-41
2022/10/11 00:22:28;;;;;;;4.93;2.15;;;8.70;99.90;;;;;;5062510;28;20032;-40
2022/10/11 00:24:53;;;;;;;14.38;1.75;;;8.70;99.90;;;;;;5091613;28;20085;-41
2022/10/11 00:27:19;;;;;;;8.05;2.05;;;8.70;99.90;;;;;;5091628;28;20044;-41
2022/10/11 00:29:45;;;;;;;9.13;2.40;;;8.60;99.90;;;;;;5072890;28;20094;-38
2022/10/11 00:32:10;;;;;;;3.13;2.28;;;8.60;99.90;;;;;;5085744;28;20033;-37
2022/10/11 00:34:36;;;;;;;6.10;2.08;;;8.60;99.90;;;;;;5079740;28;20028;-33
2022/10/11 00:37:02;;;;;;;14.85;2.70;;;8.60;99.90;;;;;;5083723;28;20396;-40
2022/10/11 00:39:28;;;;;;;7.80;1.73;;;8.60;99.90;;;;;;5083832;28;20455;-33
2022/10/11 00:41:54;;;;;;;3.20;1.55;;;8.50;99.90;;;;;;5092080;28;20052;-41
2022/10/11 00:44:22;;;;;;;7.47;1.95;;;8.50;99.90;;;;;;5082367;28;20484;-32
2022/10/11 00:46:58;;;;;;;5.57;1.58;;;8.50;99.90;;;;;;5087634;28;20119;-38
2022/10/11 00:49:41;;;;;;;6.93;2.33;;;8.50;99.90;;;;;;5088654;28;20032;-45
2022/10/11 00:52:12;;;;;;;8.30;2.25;;;8.50;99.90;;;;;;5084437;28;20040;-44
2022/10/11 00:54:42;;;;;;;8.55;2.08;;;8.40;99.90;;;;;;5072495;28;20086;-42
2022/10/11 00:57:13;;;;;;;4.35;1.75;;;8.40;99.90;;;;;;5073646;28;20028;-39
2022/10/11 00:59:44;;;;;;;4.78;1.77;;;8.40;99.90;;;;;;5070527;28;20123;-33
2022/10/11 01:02:10;;;;;;;4.85;1.98;;;8.40;99.90;;;;;;5080669;28;20033;-38
2022/10/11 01:04:36;;;;;;;8.52;2.20;;;8.40;99.90;;;;;;5077221;28;20043;-36
2022/10/11 01:07:01;;;;;;;7.25;1.73;;;8.40;99.90;;;;;;5086844;28;20020;-42
2022/10/11 01:09:28;;;;;;;4.38;1.45;;;8.40;99.90;;;;;;5076864;28;20040;-41
2022/10/11 01:11:58;;;;;;;10.80;2.03;;;8.40;99.90;;;;;;5079297;28;20032;-40
2022/10/11 01:14:23;;;;;;;3.40;1.70;;;8.40;99.90;;;;;;5076276;28;20554;-41
2022/10/11 01:17:02;;;;;;;5.15;1.67;;;8.40;99.90;;;;;;5054044;28;20033;-41
2022/10/11 01:20:22;;;;;;;4.82;1.60;;;8.40;99.90;;;;;;5076037;28;20029;-41
2022/10/11 01:23:28;;;;;;;4.50;1.80;;;8.40;99.90;;;;;;5026519;28;20796;-43
2022/10/11 01:26:22;;;;;;;11.00;1.88;;;8.40;99.90;;;;;;5074920;28;20039;-36
2022/10/11 01:28:57;;;;;;;7.90;1.90;;;8.40;99.90;;;;;;5084892;28;20058;-41
2022/10/11 01:31:55;;;;;;;5.88;3.13;;;8.40;99.90;;;;;;5083030;28;20480;-41
2022/10/11 01:34:21;;;;;;;6.20;2.03;;;8.50;99.90;;;;;;5053002;28;20480;-42
2022/10/11 01:36:55;;;;;;;8.13;2.45;;;8.50;99.90;;;;;;5077184;28;20063;-37
2022/10/11 01:39:29;;;;;;;7.22;2.00;;;8.50;99.90;;;;;;5076507;28;20028;-43
2022/10/11 01:41:58;;;;;;;6.22;2.03;;;8.50;99.90;;;;;;5088897;28;20045;-39
2022/10/11 01:44:26;;;;;;;5.47;1.92;;;8.50;99.90;;;;;;5095235;28;20031;-41
2022/10/11 01:46:52;;;;;;;13.48;2.80;;;8.50;99.90;;;;;;5079454;28;20032;-44
2022/10/11 01:49:18;;;;;;;3.35;1.77;;;8.40;99.90;;;;;;5089233;28;20024;-42
2022/10/11 01:51:51;;;;;;;8.57;1.83;;;8.40;99.90;;;;;;5091328;28;20426;-39
2022/10/11 01:54:40;;;;;;;5.05;1.52;;;8.30;99.90;;;;;;5077718;28;20465;-43
2022/10/11 01:57:12;;;;;;;8.35;2.22;;;8.40;99.90;;;;;;5074793;28;20438;-40
2022/10/11 01:59:40;;;;;;;8.15;2.00;;;8.40;99.90;;;;;;5091944;28;20523;-44
2022/10/11 02:02:30;;;;;;;10.40;2.17;;;8.40;99.90;;;;;;5084310;28;20483;-41
2022/10/11 02:05:08;;;;;;;5.15;2.13;;;8.40;99.90;;;;;;5093560;28;20030;-41
2022/10/11 02:07:33;;;;;;;;;;;8.40;99.90;;;;;;5087206;28;20058;-46
2022/10/11 02:10:36;;;;;;;5.25;2.88;;;8.30;99.90;;;;;;5060349;28;19955;-41
2022/10/11 02:13:18;;;;;;;4.35;2.25;;;8.30;99.90;;;;;;5089452;28;20032;-45
2022/10/11 02:15:46;;;;;;;4.30;2.00;;;8.20;99.90;;;;;;5091577;28;20024;-41
2022/10/11 02:18:16;;;;;;;3.83;2.10;;;8.20;99.90;;;;;;5087570;28;20036;-40
2022/10/11 02:20:44;;;;;;;2.42;1.45;;;8.20;99.90;;;;;;5085310;28;20472;-42
2022/10/11 02:23:13;;;;;;;3.47;2.20;;;8.20;99.90;;;;;;5093460;28;20036;-42
2022/10/11 02:25:39;;;;;;;7.70;2.00;;;8.20;99.90;;;;;;5081356;28;20030;-41
2022/10/11 02:28:13;;;;;;;5.35;2.08;;;8.20;99.90;;;;;;5057544;28;20036;-42
2022/10/11 02:30:59;;;;;;;3.60;2.30;;;8.20;99.90;;;;;;5063146;28;20126;-42
2022/10/11 02:33:51;;;;;;;3.65;1.73;;;8.20;99.90;;;;;;5075729;28;20031;-45
2022/10/11 02:36:29;;;;;;;8.25;1.80;;;8.20;99.90;;;;;;5088125;28;20458;-43
2022/10/11 02:39:00;;;;;;;5.90;2.08;;;8.20;99.90;;;;;;5082495;28;20111;-40
2022/10/11 02:41:35;;;;;;;5.50;2.00;;;8.20;99.90;;;;;;5082009;28;20020;-46
2022/10/11 02:44:21;;;;;;;2.58;1.70;;;8.10;99.90;;;;;;5087163;28;20070;-42
2022/10/11 02:46:49;;;;;;;5.75;2.42;;;8.20;99.90;;;;;;5091499;28;20048;-46
2022/10/11 02:49:16;;;;;;;4.32;1.80;;;8.20;99.90;;;;;;5083971;28;20032;-42
2022/10/11 02:51:41;;;;;;;5.85;1.70;;;8.20;99.90;;;;;;5085807;28;20070;-40
2022/10/11 02:54:07;;;;;;;2.75;2.08;;;8.20;99.90;;;;;;5083672;28;20052;-41
2022/10/11 02:56:32;;;;;;;6.32;1.55;;;8.20;99.90;;;;;;5091682;28;20103;-42
2022/10/11 02:58:58;;;;;;;5.07;3.15;;;8.20;99.90;;;;;;5079548;28;20032;-56
2022/10/11 03:01:24;;;;;;;4.90;1.80;;;8.20;99.90;;;;;;5084938;28;20028;-35
2022/10/11 03:03:50;;;;;;;12.63;1.67;;;8.20;99.90;;;;;;5081391;28;20154;-33
2022/10/11 03:06:15;;;;;;;5.60;1.60;;;8.20;99.90;;;;;;5082703;28;20062;-37
2022/10/11 03:08:41;;;;;;;4.65;1.85;;;8.20;99.90;;;;;;5092380;28;20028;-33
2022/10/11 03:11:06;;;;;;;3.45;1.58;;;8.20;99.90;;;;;;5090082;28;20036;-32
2022/10/11 03:13:32;;;;;;;10.38;2.33;;;8.20;99.90;;;;;;5074031;28;20393;-34
2022/10/11 03:15:58;;;;;;;8.30;2.13;;;8.30;99.90;;;;;;5078761;28;20476;-33
2022/10/11 03:18:23;;;;;;;5.32;2.17;;;8.30;99.90;;;;;;5074576;28;20040;-34
2022/10/11 03:20:49;;;;;;;3.17;1.92;;;8.30;99.90;;;;;;5092982;28;20028;-35
2022/10/11 03:23:14;;;;;;;7.25;2.15;;;8.20;99.90;;;;;;5092055;28;20032;-37
2022/10/11 03:25:40;;;;;;;7.72;1.60;;;8.20;99.90;;;;;;5074675;28;20567;-60
2022/10/11 03:28:05;;;;;;;5.32;1.38;;;8.20;99.90;;;;;;5075656;28;20489;-35
2022/10/11 03:30:31;;;;;;;3.17;1.70;;;8.20;99.90;;;;;;5073243;28;20024;-42
2022/10/11 03:32:57;;;;;;;4.75;1.63;;;8.20;99.90;;;;;;5077832;28;20020;-41
2022/10/11 03:35:22;;;;;;;4.28;1.80;;;8.10;99.90;;;;;;5073378;28;20383;-41
2022/10/11 03:37:48;;;;;;;5.47;1.75;;;8.10;99.90;;;;;;5086368;28;20028;-45
2022/10/11 03:40:14;;;;;;;6.63;1.52;;;8.10;99.90;;;;;;5057416;28;20032;-36
2022/10/11 03:42:39;;;;;;;3.15;1.83;;;8.00;99.90;;;;;;5088176;28;20097;-43
2022/10/11 03:45:07;;;;;;;5.50;2.03;;;8.00;99.90;;;;;;5072645;28;20024;-45
2022/10/11 03:47:35;;;;;;;5.80;1.98;;;8.00;99.90;;;;;;5086989;28;20039;-43
2022/10/11 03:50:01;;;;;;;6.97;2.15;;;8.00;99.90;;;;;;5092641;28;20033;-42
2022/10/11 03:52:26;;;;;;;2.50;1.52;;;7.90;99.90;;;;;;5089502;28;20051;-42
2022/10/11 03:54:52;;;;;;;11.55;2.72;;;7.90;99.90;;;;;;5092140;28;20064;-43
2022/10/11 03:57:18;;;;;;;5.78;1.40;;;7.80;99.90;;;;;;5075148;28;20488;-41
2022/10/11 03:59:44;;;;;;;13.40;1.75;;;7.80;99.90;;;;;;5088758;28;20430;-40
2022/10/11 04:02:10;;;;;;;4.55;1.50;;;7.90;99.90;;;;;;5083713;28;20032;-42
2022/10/11 04:04:35;;;;;;;9.27;1.80;;;7.90;99.90;;;;;;5087777;28;20016;-40
2022/10/11 04:07:01;;;;;;;1.45;1.30;;;7.90;99.90;;;;;;5080980;28;20032;-41
2022/10/11 04:09:27;;;;;;;6.22;1.33;;;7.80;99.90;;;;;;5075724;28;20032;-42
2022/10/11 04:11:52;;;;;;;4.53;1.13;;;7.80;99.90;;;;;;5092520;28;20036;-45
2022/10/11 04:14:18;;;;;;;3.80;1.70;;;7.70;99.90;;;;;;5084527;28;20119;-41
2022/10/11 04:16:43;;;;;;;4.72;1.83;;;7.70;99.90;;;;;;5091321;28;20031;-76
2022/10/11 04:19:09;;;;;;;7.43;1.80;;;7.80;99.90;;;;;;5089369;28;20068;-41
2022/10/11 04:21:35;;;;;;;5.65;2.03;;;7.80;99.90;;;;;;5067545;28;20481;-42
2022/10/11 04:24:00;;;;;;;6.78;2.40;;;7.80;99.90;;;;;;5072743;28;20028;-33
2022/10/11 04:26:26;;;;;;;4.43;2.10;;;7.80;99.90;;;;;;5074911;28;20029;-34
2022/10/11 04:28:52;;;;;;;7.63;1.90;;;7.80;99.90;;;;;;5077625;28;20017;-41
2022/10/11 04:31:17;;;;;;;5.93;2.08;;;7.80;99.90;;;;;;5091331;28;20499;-40
2022/10/11 04:33:43;;;;;;;5.93;1.98;;;7.80;99.90;;;;;;5083779;28;20053;-42
2022/10/11 04:36:09;;;;;;;3.53;1.58;;;7.80;99.90;;;;;;5091661;28;20560;-43
2022/10/11 04:38:34;;;;;;;4.57;1.50;;;7.80;99.90;;;;;;5080312;28;20036;-37
2022/10/11 04:41:13;;;;;;;8.10;1.70;;;7.80;99.90;;;;;;5090682;28;20056;-36
2022/10/11 04:43:39;;;;;;;3.45;1.90;;;7.80;99.90;;;;;;5072522;28;20169;-43
2022/10/11 04:46:05;;;;;;;10.10;2.35;;;7.80;99.90;;;;;;5076829;28;20488;-41
2022/10/11 04:48:31;;;;;;;11.70;1.90;;;7.80;99.90;;;;;;5076624;28;20024;-40
2022/10/11 04:50:57;;;;;;;4.57;1.35;;;7.90;99.90;;;;;;5091210;28;20021;-38
2022/10/11 04:53:23;;;;;;;8.18;2.22;;;7.90;99.90;;;;;;5075251;28;20032;-41
2022/10/11 04:56:00;;;;;;;4.93;1.77;;;8.00;99.90;;;;;;5076373;28;20380;-44
2022/10/11 04:58:26;;;;;;;5.82;1.75;;;8.00;99.90;;;;;;5091630;28;20035;-41
2022/10/11 05:00:52;;;;;;;9.35;1.98;;;8.00;99.90;;;;;;5077658;28;20035;-42
2022/10/11 05:03:18;;;;;;;9.18;2.33;;;8.00;99.90;;;;;;5089520;28;20016;-41
2022/10/11 05:05:44;;;;;;;6.35;1.70;;;8.00;99.90;;;;;;5092056;28;20042;-42
2022/10/11 05:08:10;;;;;;;9.02;2.05;;;8.00;99.90;;;;;;5081834;28;20520;-41
2022/10/11 05:10:35;;;;;;;6.05;1.90;;;8.00;99.90;;;;;;5094117;28;20039;-60
2022/10/11 05:13:01;;;;;;;5.32;1.98;;;7.90;99.90;;;;;;5095362;28;20421;-40
2022/10/11 05:15:27;;;;;;;5.70;2.50;;;7.90;99.90;;;;;;5093618;28;20085;-42
2022/10/11 05:17:52;;;;;;;2.50;1.60;;;7.90;99.90;;;;;;5082831;28;20032;-42
2022/10/11 05:20:18;;;;;;;8.50;1.83;;;7.80;99.90;;;;;;5084576;28;20037;-43
2022/10/11 05:25:27;;;;;;;6.90;1.90;;;7.80;99.90;;;;;;5093785;28;20222;-37
2022/10/11 05:27:53;;;;;;;4.90;1.75;;;7.90;99.90;;;;;;5075704;28;20064;-34
2022/10/11 05:30:18;;;;;;;11.30;1.83;;;7.90;99.90;;;;;;5078656;28;20039;-35
2022/10/11 05:32:44;;;;;;;5.63;2.20;;;8.00;99.90;;;;;;5085588;28;20115;-32
2022/10/11 05:35:10;;;;;;;5.57;2.20;;;8.00;99.90;;;;;;5080193;28;20035;-37
2022/10/11 05:37:36;;;;;;;9.40;2.28;;;8.00;99.90;;;;;;5079371;28;21093;-32
2022/10/11 05:40:03;;;;;;;7.07;2.35;;;8.00;99.90;;;;;;5083744;28;20099;-39
2022/10/11 05:42:28;;;;;;;5.95;1.83;;;8.00;99.90;;;;;;5095052;28;20032;-44
2022/10/11 05:44:54;;;;;;;7.30;1.73;;;7.90;99.90;;;;;;5062221;28;20447;-39
2022/10/11 05:47:19;;;;;;;14.35;3.38;;;7.90;99.90;;;;;;5085069;28;20103;-42
2022/10/11 05:49:45;;;;;;;6.22;1.95;;;8.00;99.90;;;;;;5084399;28;20032;-42
2022/10/11 05:52:12;;;;;;;6.85;1.98;;;8.00;99.90;;;;;;5091375;28;20036;-41
2022/10/11 05:54:37;;;;;;;7.63;1.50;;;8.00;99.90;;;;;;5092816;28;20020;-43
2022/10/11 05:57:03;;;;;;;4.57;1.55;;;8.00;99.90;;;;;;5087003;28;20468;-40
2022/10/11 05:59:29;;;;;;;7.00;1.67;;;7.90;99.90;;;;;;5086491;28;20388;-39
2022/10/11 06:01:54;;;;;;;4.07;2.10;;;7.90;99.90;;;;;;5080494;28;20460;-41
2022/10/11 06:04:20;;;;;;;10.15;2.58;;;7.90;99.90;;;;;;5078021;28;20070;-36
2022/10/11 06:06:46;;;;;;;4.35;1.90;;;7.90;99.90;;;;;;5087343;28;20032;-40
2022/10/11 06:09:12;;;;;;;12.57;1.75;;;7.90;99.90;;;;;;5092859;28;20387;-40
2022/10/11 06:11:40;;;;;;;10.68;2.55;;;7.90;99.90;;;;;;5094371;28;20028;-43
2022/10/11 06:14:05;;;;;;;;;;;7.90;99.90;;;;;;5074467;28;20012;-41
2022/10/11 06:16:31;;;;;;;9.75;2.83;;;8.00;99.90;;;;;;5081202;28;20016;-41
2022/10/11 06:18:59;;;;;;;6.50;3.10;;;8.00;99.90;;;;;;5076138;28;20028;-42
2022/10/11 06:21:25;;;;;;;8.02;2.42;;;8.00;99.90;;;;;;5091233;28;20433;-41
2022/10/11 06:23:51;;;;;;;4.07;2.03;;;8.00;99.90;;;;;;5091570;28;20102;-43
2022/10/11 06:26:17;;;;;;;5.90;2.38;;;8.10;99.90;;;;;;5089128;28;20156;-41
2022/10/11 06:28:43;;;;;;;11.50;2.60;;;8.10;99.90;;;;;;5094010;28;20111;-41
2022/10/11 06:31:09;;;;;;;6.80;2.05;;;8.10;99.90;;;;;;5087049;28;20146;-40
2022/10/11 06:33:36;;;;;;;8.80;2.65;;;8.10;99.90;;;;;;5085872;28;20673;-45
2022/10/11 06:36:05;;;;;;;14.70;3.13;;;8.20;99.90;;;;;;5075012;28;20111;-40
2022/10/11 06:38:31;;;;;;;14.85;6.20;;;8.30;99.90;;;;;;5085465;28;20240;-40
2022/10/11 06:40:56;;;;;;;12.27;4.28;;;8.30;99.90;;;;;;5092284;28;20066;-55
2022/10/11 06:43:22;;;;;;;12.60;3.70;;;8.40;99.90;;;;;;5082228;28;20038;-41
2022/10/11 06:45:48;;;;;;;17.50;7.60;;;8.50;99.90;;;;;;5076386;28;20026;-43
2022/10/11 06:48:13;;;;;;;12.48;6.47;;;8.60;99.90;;;;;;5086480;28;20024;-46
2022/10/11 06:50:39;;;;;;;28.42;12.00;;;8.60;99.90;;;;;;5086919;28;20028;-42
2022/10/11 06:53:08;;;;;;;30.33;13.48;;;8.70;99.90;;;;;;5087168;28;20032;-44
2022/10/11 06:55:34;;;;;;;27.08;11.05;;;8.70;99.90;;;;;;5092872;28;20480;-41
2022/10/11 06:58:00;;;;;;;16.90;8.35;;;8.80;99.90;;;;;;5093295;28;20078;-41
2022/10/11 07:00:25;;;;;;;19.40;9.57;;;8.90;99.90;;;;;;5091356;28;20392;-35
2022/10/11 07:02:51;;;;;;;15.63;6.85;;;9.00;99.90;;;;;;5087300;28;20020;-42
2022/10/11 07:05:16;;;;;;;19.15;5.70;;;9.00;99.90;;;;;;5093412;28;20024;-41
2022/10/11 07:07:43;;;;;;;24.67;6.07;;;9.10;99.90;;;;;;5081422;28;20146;-37
2022/10/11 07:10:09;;;;;;;15.60;7.40;;;9.10;99.90;;;;;;5090714;28;20169;-68
2022/10/11 07:12:35;;;;;;;22.15;8.57;;;9.20;99.90;;;;;;5090155;28;20173;-47
2022/10/11 07:15:00;;;;;;;10.07;6.10;;;9.20;99.90;;;;;;5087993;28;20066;-42
2022/10/11 07:17:26;;;;;;;8.73;4.70;;;9.30;99.90;;;;;;5087121;28;20096;-40
2022/10/11 07:19:51;;;;;;;16.90;4.25;;;9.40;99.90;;;;;;5087946;28;20102;-41
2022/10/11 07:22:17;;;;;;;13.25;3.75;;;9.50;99.90;;;;;;5085302;28;20028;-60
2022/10/11 07:24:42;;;;;;;10.00;4.05;;;9.60;99.90;;;;;;5087655;28;20111;-42
2022/10/11 07:27:08;;;;;;;13.63;4.80;;;9.70;99.90;;;;;;5075608;28;20032;-42
2022/10/11 07:29:34;;;;;;;32.65;17.90;;;9.80;99.90;;;;;;5083162;28;20073;-43
2022/10/11 07:32:00;;;;;;;13.55;4.90;;;9.90;99.90;;;;;;5085198;28;20426;-41
2022/10/11 07:34:26;;;;;;;7.57;3.55;;;10.00;99.90;;;;;;5081483;28;20155;-36
2022/10/11 07:36:51;;;;;;;14.07;3.70;;;10.10;99.90;;;;;;5077170;28;20131;-32
2022/10/11 07:39:17;;;;;;;6.18;3.47;;;10.10;99.90;;;;;;5084184;28;20105;-42
2022/10/11 07:41:42;;;;;;;22.35;8.30;;;10.20;99.90;;;;;;5075157;28;20461;-41
2022/10/11 07:44:08;;;;;;;11.20;3.75;;;10.30;99.90;;;;;;5073257;28;20055;-42
2022/10/11 07:46:34;;;;;;;18.00;8.50;;;10.30;99.90;;;;;;5073877;28;20028;-43
2022/10/11 07:48:59;;;;;;;11.68;3.75;;;10.40;99.90;;;;;;5080068;28;20437;-42
2022/10/11 07:51:25;;;;;;;21.85;5.32;;;10.40;99.90;;;;;;5080524;28;20028;-44
2022/10/11 07:53:54;;;;;;;51.70;30.52;;;10.50;99.90;;;;;;5062600;28;20028;-32
2022/10/11 07:56:25;;;;;;;28.48;9.70;;;10.60;99.90;;;;;;5081820;28;20135;-32
2022/10/11 07:58:52;;;;;;;21.35;11.95;;;10.70;99.90;;;;;;5083977;28;20032;-33
2022/10/11 08:01:19;;;;;;;26.70;6.88;;;10.90;99.90;;;;;;5089042;28;20507;-31
2022/10/11 08:03:44;;;;;;;18.10;8.80;;;11.00;99.90;;;;;;5074264;28;20025;-56
2022/10/11 08:06:12;;;;;;;7.82;3.70;;;11.10;99.90;;;;;;5087847;28;20050;-37
2022/10/11 08:08:38;;;;;;;;;;;11.20;99.90;;;;;;5081437;28;20476;-33
2022/10/11 08:11:04;;;;;;;30.92;17.42;;;11.20;99.90;;;;;;5090585;28;19923;-32
2022/10/11 08:13:30;;;;;;;20.73;12.02;;;11.30;99.90;;;;;;5083525;28;20396;-30
2022/10/11 08:15:56;;;;;;;24.02;12.48;;;11.40;99.90;;;;;;5082007;28;20480;-32
2022/10/11 08:18:21;;;;;;;16.98;6.40;;;11.50;99.90;;;;;;5092543;28;20035;-35
2022/10/11 08:20:47;;;;;;;7.68;2.75;;;11.60;99.90;;;;;;5093225;28;20016;-31
2022/10/11 08:23:15;;;;;;;12.95;6.15;;;11.70;99.90;;;;;;5073537;28;20036;-33
2022/10/11 08:25:42;;;;;;;13.00;3.92;;;11.80;99.90;;;;;;5091241;28;20052;-34
2022/10/11 08:28:09;;;;;;;30.23;10.13;;;11.90;99.90;;;;;;5072932;28;20635;-36
2022/10/11 08:30:35;;;;;;;16.27;5.15;;;12.00;99.90;;;;;;5077631;28;20020;-34
2022/10/11 08:33:01;;;;;;;62.47;33.92;;;12.10;99.90;;;;;;5089209;28;20103;-41
2022/10/11 08:35:27;;;;;;;67.00;33.80;;;12.20;99.90;;;;;;5072288;28;20108;-34
2022/10/11 08:37:52;;;;;;;38.75;16.17;;;12.30;99.90;;;;;;5076143;28;20066;-35
2022/10/11 08:40:20;;;;;;;162.07;74.80;;;12.40;99.90;;;;;;5079065;28;20157;-36
2022/10/11 08:42:59;;;;;;;46.53;23.23;;;12.50;99.90;;;;;;5086689;28;20053;-33
2022/10/11 08:45:34;;;;;;;13.98;7.60;;;12.60;99.90;;;;;;5081975;28;20028;-40
2022/10/11 08:48:19;;;;;;;19.48;9.27;;;12.70;99.90;;;;;;5060623;28;20028;-33
2022/10/11 08:50:49;;;;;;;13.65;3.05;;;12.80;99.90;;;;;;5094864;28;20464;-33
2022/10/11 08:53:44;;;;;;;21.70;7.28;;;12.80;99.90;;;;;;5091442;28;20027;-35
2022/10/11 08:56:13;;;;;;;31.15;13.15;;;12.90;99.90;;;;;;5067595;28;20123;-40
2022/10/11 08:58:43;;;;;;;10.38;2.53;;;13.00;99.90;;;;;;5090992;28;20027;-39
2022/10/11 09:01:16;;;;;;;8.40;2.42;;;13.20;99.90;;;;;;5083506;28;20032;-39
2022/10/11 09:03:45;;;;;;;45.33;25.27;;;13.20;99.90;;;;;;5072353;28;20483;-39
2022/10/11 09:06:22;;;;;;;21.50;8.75;;;13.30;99.90;;;;;;5076148;28;20028;-40
2022/10/11 09:09:00;;;;;;;;;;;13.40;99.90;;;;;;5078487;28;20040;-40
2022/10/11 09:11:56;;;;;;;8.00;2.67;;;13.50;99.90;;;;;;5073068;28;19908;-42
2022/10/11 09:14:50;;;;;;;10.90;1.73;;;13.70;99.90;;;;;;5076967;28;20464;-42
2022/10/11 09:17:28;;;;;;;13.82;2.90;;;13.90;99.90;;;;;;5076215;28;20060;-39
2022/10/11 09:20:11;;;;;;;13.80;3.97;;;14.10;99.90;;;;;;5060248;28;20032;-40
2022/10/11 09:23:12;;;;;;;12.82;2.63;;;14.20;99.90;;;;;;5079465;28;20020;-41
2022/10/11 09:26:04;;;;;;;11.75;2.45;;;14.30;99.90;;;;;;5011569;28;20032;-40
2022/10/11 09:28:49;;;;;;;12.50;2.70;;;14.40;99.90;;;;;;5094403;28;20020;-40
2022/10/11 09:31:15;;;;;;;6.25;1.88;;;14.60;99.90;;;;;;5095042;28;20077;-41
2022/10/11 09:33:49;;;;;;;13.32;2.30;;;14.80;99.90;;;;;;5093491;28;20115;-39
2022/10/11 09:36:58;;;;;;;8.82;3.03;;;14.90;99.90;;;;;;5090143;28;20492;-34
2022/10/11 09:39:32;;;;;;;14.32;3.30;;;15.00;99.90;;;;;;5090823;28;20508;-33
2022/10/11 09:42:06;;;;;;;7.60;2.20;;;15.10;99.90;;;;;;5078080;28;20496;-35
2022/10/11 09:44:38;;;;;;;10.25;2.03;;;15.10;99.90;;;;;;5088335;28;20027;-32
2022/10/11 09:47:05;;;;;;;7.03;1.92;;;15.30;99.90;;;;;;5083423;28;20489;-32
2022/10/11 09:49:46;;;;;;;6.75;1.92;;;15.30;99.90;;;;;;5074962;28;20492;-35
2022/10/11 09:52:17;;;;;;;16.65;3.67;;;15.40;99.90;;;;;;5089842;28;20529;-34
2022/10/11 09:54:55;;;;;;;22.35;6.15;;;15.30;99.90;;;;;;5077827;28;20522;-56
2022/10/11 09:57:30;;;;;;;9.07;2.42;;;15.30;99.90;;;;;;5079528;28;20385;-36
2022/10/11 10:00:10;;;;;;;9.15;2.95;;;15.30;99.90;;;;;;5075955;28;20376;-38
2022/10/11 10:02:45;;;;;;;8.93;1.77;;;15.30;99.90;;;;;;5078268;28;20350;-35
2022/10/11 10:05:13;;;;;;;106.65;44.13;;;15.50;99.90;;;;;;5090141;28;20660;-37
2022/10/11 10:07:55;;;;;;;51.88;22.35;;;15.60;99.90;;;;;;5079975;28;20492;-39
2022/10/11 10:10:39;;;;;;;109.80;48.00;;;15.80;99.90;;;;;;5091357;28;20504;-31
2022/10/11 10:13:18;;;;;;;147.73;64.10;;;15.80;99.90;;;;;;5091563;28;20027;-42
2022/10/11 10:15:49;;;;;;;26.35;12.38;;;15.90;99.90;;;;;;5085453;28;20024;-36
2022/10/11 10:18:23;;;;;;;14.63;2.70;;;16.00;99.90;;;;;;5091171;28;20155;-41
2022/10/11 10:20:55;;;;;;;9.23;2.65;;;16.00;99.90;;;;;;5092988;28;20101;-34
2022/10/11 10:23:27;;;;;;;308.98;148.65;;;16.10;99.90;;;;;;5090589;28;20028;-32
2022/10/11 10:26:20;;;;;;;177.40;88.97;;;16.10;99.90;;;;;;5089679;28;20489;-32
2022/10/11 10:29:15;;;;;;;131.88;63.75;;;16.20;99.90;;;;;;5094905;28;20153;-41
2022/10/11 10:31:47;;;;;;;17.38;6.85;;;16.30;99.90;;;;;;5091404;28;20024;-41
2022/10/11 10:34:25;;;;;;;24.30;6.15;;;16.40;99.90;;;;;;5080690;28;20032;-41
2022/10/11 10:36:59;;;;;;;22.30;14.27;;;16.30;99.90;;;;;;5075658;28;20492;-67
2022/10/11 10:39:49;;;;;;;138.40;79.68;;;16.30;99.90;;;;;;5094756;28;20035;-42
2022/10/11 10:42:20;;;;;;;42.28;22.48;;;16.40;99.90;;;;;;5075939;28;20510;-37
2022/10/11 10:44:54;;;;;;;60.60;31.42;;;16.50;99.90;;;;;;5092434;28;20422;-41
2022/10/11 10:47:46;;;;;;;7.95;4.15;;;16.50;99.90;;;;;;5088443;28;20495;-39
2022/10/11 10:50:24;;;;;;;8.15;1.45;;;16.60;99.90;;;;;;5078743;28;20030;-41
2022/10/11 10:53:08;;;;;;;11.65;1.60;;;16.50;99.90;;;;;;5081670;28;20157;-41
2022/10/11 10:55:41;;;;;;;7.10;1.15;;;16.60;99.90;;;;;;5084558;28;20052;-40
2022/10/11 10:58:38;;;;;;;9.10;2.40;;;16.70;99.90;;;;;;5074248;28;20384;-42
2022/10/11 11:01:18;;;;;;;7.80;1.40;;;16.70;99.90;;;;;;5074586;28;20461;-42
2022/10/11 11:03:58;;;;;;;10.45;4.07;;;16.70;99.90;;;;;;5073991;28;20017;-42
2022/10/11 11:06:39;;;;;;;16.00;3.92;;;16.80;99.90;;;;;;5081929;28;20081;-39
2022/10/11 11:09:22;;;;;;;8.98;1.67;;;16.90;99.90;;;;;;5073692;28;20488;-40
2022/10/11 11:11:58;;;;;;;2.80;0.90;;;16.90;99.90;;;;;;5078392;28;20028;-40
2022/10/11 11:14:44;;;;;;;7.38;1.90;;;16.90;99.90;;;;;;5093939;28;20487;-41
2022/10/11 11:17:15;;;;;;;238.98;96.03;;;16.90;99.90;;;;;;5086306;28;20019;-41
2022/10/11 11:20:02;;;;;;;16.50;6.18;;;16.90;99.90;;;;;;5082233;28;20032;-42
2022/10/11 11:22:28;;;;;;;13.40;4.35;;;17.00;99.90;;;;;;5086751;28;20028;-46
2022/10/11 11:24:59;;;;;;;8.90;1.00;;;16.90;99.90;;;;;;5093204;28;20391;-40
2022/10/11 11:27:49;;;;;;;6.28;1.23;;;16.80;99.90;;;;;;5090248;28;20059;-43
2022/10/11 11:30:20;;;;;;;9.82;1.48;;;17.00;99.90;;;;;;5078559;28;20503;-57
2022/10/11 11:33:08;;;;;;;6.38;0.98;;;17.20;99.90;;;;;;5088442;28;20027;-42
2022/10/11 11:35:37;;;;;;;3.05;1.02;;;17.00;99.90;;;;;;5089770;28;20514;-44
2022/10/11 11:38:09;;;;;;;7.25;1.63;;;16.90;99.90;;;;;;5069742;28;20036;-68
2022/10/11 11:41:13;;;;;;;5.57;1.23;;;17.00;99.90;;;;;;5084895;28;20539;-59
2022/10/11 11:44:40;;;;;;;5.43;1.33;;;17.30;99.90;;;;;;5046470;28;20047;-43
2022/10/11 11:47:16;;;;;;;8.18;1.25;;;17.60;99.90;;;;;;4978525;28;20034;-39
2022/10/11 11:49:46;;;;;;;2.10;0.63;;;17.70;99.90;;;;;;5068552;28;20032;-40
2022/10/11 11:52:21;;;;;;;11.48;1.02;;;17.80;99.90;;;;;;5093327;28;20262;-41
2022/10/11 11:55:07;;;;;;;10.68;1.40;;;17.50;99.90;;;;;;5093312;28;20541;-41
2022/10/11 11:57:38;;;;;;;9.25;1.60;;;17.30;99.90;;;;;;5093135;28;20027;-40
2022/10/11 12:00:20;;;;;;;4.05;0.57;;;17.40;99.90;;;;;;5093073;28;20056;-40
2022/10/11 12:02:48;;;;;;;7.82;1.13;;;17.50;99.90;;;;;;5093374;28;20024;-42
2022/10/11 12:05:20;;;;;;;3.88;1.45;;;17.40;99.90;;;;;;5075083;28;20549;-40
2022/10/11 12:07:56;;;;;;;7.75;1.15;;;17.20;99.90;;;;;;5093120;28;20032;-32
2022/10/11 12:10:53;;;;;;;7.72;1.17;;;16.80;99.90;;;;;;5076280;28;20472;-35
2022/10/11 12:13:25;;;;;;;10.07;1.30;;;16.70;99.90;;;;;;5092456;28;20602;-36
2022/10/11 12:15:59;;;;;;;7.80;1.10;;;16.50;99.90;;;;;;5093244;28;20035;-32
2022/10/11 12:18:26;;;;;;;9.15;1.27;;;16.50;99.90;;;;;;5093244;28;20499;-32
2022/10/11 12:21:16;;;;;;;4.78;1.35;;;16.50;99.90;;;;;;5093123;28;20487;-32
2022/10/11 12:23:50;;;;;;;2.28;0.70;;;16.50;99.90;;;;;;5092880;28;20031;-32
2022/10/11 12:26:28;;;;;;;18.88;8.48;;;16.50;99.90;;;;;;5074854;28;20028;-35
2022/10/11 12:29:04;;;;;;;5.68;1.38;;;16.40;99.90;;;;;;5092870;28;20036;-37
2022/10/11 12:31:32;;;;;;;6.28;1.42;;;16.40;99.90;;;;;;5092812;28;20165;-33
2022/10/11 12:34:14;;;;;;;7.38;1.05;;;16.20;99.90;;;;;;5092901;28;20496;-36
2022/10/11 12:36:42;;;;;;;4.95;0.80;;;16.10;99.90;;;;;;5092584;28;20097;-36
2022/10/11 12:39:19;;;;;;;8.07;1.20;;;16.10;99.90;;;;;;5092525;28;20499;-33
2022/10/11 12:41:54;;;;;;;;;;;16.00;99.90;;;;;;5093208;28;20128;-37
2022/10/11 12:44:27;;;;;;;7.07;1.23;;;16.00;99.90;;;;;;5092728;28;20387;-38
2022/10/11 12:46:52;;;;;;;8.30;1.52;;;15.80;99.90;;;;;;5092964;28;20503;-42
2022/10/11 12:49:36;;;;;;;5.38;1.58;;;15.70;99.90;;;;;;5092606;28;20036;-36
2022/10/11 12:52:17;;;;;;;10.27;1.70;;;15.70;99.90;;;;;;5092562;28;20032;-38
2022/10/11 12:55:01;;;;;;;7.90;2.15;;;15.70;99.90;;;;;;5092588;28;20085;-34
2022/10/11 12:58:03;;;;;;;13.43;3.63;;;15.70;99.90;;;;;;5093088;28;20425;-31
2022/10/11 13:00:44;;;;;;;11.00;2.90;;;16.10;99.90;;;;;;5092547;28;20396;-34
2022/10/11 13:03:31;;;;;;;5.13;1.55;;;16.60;99.90;;;;;;5074130;28;20036;-32
2022/10/11 13:05:57;;;;;;;12.40;2.17;;;17.10;99.90;;;;;;5092412;28;20028;-45
2022/10/11 13:08:30;;;;;;;6.20;1.52;;;17.40;99.90;;;;;;5092455;28;20407;-34
2022/10/11 13:11:03;;;;;;;7.35;1.27;;;17.70;99.90;;;;;;5092433;28;20039;-36
2022/10/11 13:13:38;;;;;;;6.38;1.25;;;17.90;99.90;;;;;;5075028;28;20437;-35